createdAt,value
2018-05-08T00:02:16.562Z,14.85
2018-05-08T00:04:45.737Z,14.71
2018-05-08T00:07:14.128Z,14.63
2018-05-08T00:09:42.522Z,14.54
2018-05-08T00:12:10.946Z,14.52
2018-05-08T00:14:39.367Z,14.44
2018-05-08T00:17:07.787Z,14.44
2018-05-08T00:19:36.930Z,14.40
2018-05-08T00:22:05.953Z,14.43
2018-05-08T00:24:34.376Z,14.33
2018-05-08T00:27:02.785Z,14.27
2018-05-08T00:29:31.170Z,14.17
2018-05-08T00:31:59.595Z,14.11
2018-05-08T00:34:28.002Z,14.07
2018-05-08T00:36:58.096Z,14.02
2018-05-08T00:39:26.489Z,13.94
2018-05-08T00:41:54.905Z,13.89
2018-05-08T00:44:23.419Z,13.89
2018-05-08T00:46:51.854Z,13.86
2018-05-08T00:49:20.268Z,13.88
2018-05-08T00:51:48.658Z,13.82
2018-05-08T00:54:17.074Z,13.93
2018-05-08T00:56:45.542Z,13.89
2018-05-08T00:59:14.741Z,13.90
2018-05-08T01:01:43.159Z,13.80
2018-05-08T01:04:11.564Z,13.71
2018-05-08T01:06:40.733Z,13.63
2018-05-08T01:09:09.138Z,13.66
2018-05-08T01:11:38.341Z,13.63
2018-05-08T01:14:07.509Z,13.58
2018-05-08T01:16:35.905Z,13.54
2018-05-08T01:19:04.377Z,13.50
2018-05-08T01:21:32.779Z,13.45
2018-05-08T01:24:01.162Z,13.49
2018-05-08T01:26:29.557Z,13.52
2018-05-08T01:28:57.963Z,13.47
2018-05-08T01:31:26.350Z,13.51
2018-05-08T01:33:55.513Z,13.48
2018-05-08T01:36:23.926Z,13.47
2018-05-08T01:38:53.101Z,13.49
2018-05-08T01:41:21.630Z,13.53
2018-05-08T01:43:50.043Z,13.48
2018-05-08T01:46:18.464Z,13.46
2018-05-08T01:48:46.889Z,13.43
2018-05-08T01:51:16.219Z,13.38
2018-05-08T01:53:44.660Z,13.38
2018-05-08T01:56:13.022Z,13.53
2018-05-08T01:58:41.421Z,13.61
2018-05-08T02:01:10.601Z,13.63
2018-05-08T02:03:39.858Z,13.56
2018-05-08T02:06:08.274Z,13.47
2018-05-08T02:08:36.780Z,13.43
2018-05-08T02:11:05.186Z,13.36
2018-05-08T02:13:33.570Z,13.36
2018-05-08T02:16:02.802Z,13.38
2018-05-08T02:18:31.245Z,13.40
2018-05-08T02:21:00.440Z,13.39
2018-05-08T02:23:28.822Z,13.29
2018-05-08T02:25:58.078Z,13.32
2018-05-08T02:28:27.186Z,13.33
2018-05-08T02:30:55.655Z,13.35
2018-05-08T02:33:24.094Z,13.41
2018-05-08T02:35:53.261Z,13.31
2018-05-08T02:38:21.651Z,13.28
2018-05-08T02:40:50.056Z,13.24
2018-05-08T02:43:18.480Z,13.13
2018-05-08T02:45:46.983Z,13.09
2018-05-08T02:48:15.387Z,13.03
2018-05-08T02:50:43.786Z,12.95
2018-05-08T02:53:12.994Z,12.94
2018-05-08T02:55:42.204Z,12.92
2018-05-08T02:58:11.365Z,12.87
2018-05-08T03:00:39.778Z,12.85
2018-05-08T03:03:08.169Z,12.84
2018-05-08T03:05:37.415Z,12.84
2018-05-08T03:08:05.823Z,12.84
2018-05-08T03:10:34.231Z,12.77
2018-05-08T03:13:03.441Z,12.75
2018-05-08T03:15:32.603Z,12.68
2018-05-08T03:18:01.054Z,12.68
2018-05-08T03:20:29.477Z,12.63
2018-05-08T03:22:57.902Z,12.59
2018-05-08T03:25:27.071Z,12.55
2018-05-08T03:27:55.471Z,12.49
2018-05-08T03:30:24.668Z,12.48
2018-05-08T03:32:53.062Z,12.40
2018-05-08T03:35:22.293Z,12.38
2018-05-08T03:37:50.745Z,12.32
2018-05-08T03:40:20.151Z,12.24
2018-05-08T03:42:48.550Z,12.18
2018-05-08T03:45:17.738Z,12.13
2018-05-08T03:47:46.935Z,12.04
2018-05-08T03:50:15.344Z,12.09
2018-05-08T03:52:43.786Z,12.03
2018-05-08T03:55:12.174Z,11.96
2018-05-08T03:57:40.590Z,11.98
2018-05-08T04:00:09.755Z,11.94
2018-05-08T04:02:55.810Z,11.97
2018-05-08T04:05:42.026Z,11.94
2018-05-08T04:08:23.031Z,11.91
2018-05-08T04:10:51.385Z,11.95
2018-05-08T04:13:19.784Z,12.00
2018-05-08T04:15:48.941Z,12.01
2018-05-08T04:18:17.399Z,12.03
2018-05-08T04:20:46.877Z,12.02
2018-05-08T04:23:15.297Z,12.06
2018-05-08T04:25:43.689Z,12.16
2018-05-08T04:28:12.130Z,12.19
2018-05-08T04:30:41.478Z,12.28
2018-05-08T04:33:09.893Z,12.35
2018-05-08T04:35:38.304Z,12.42
2018-05-08T04:38:07.493Z,12.48
2018-05-08T04:40:35.894Z,12.53
2018-05-08T04:43:05.063Z,12.56
2018-05-08T04:45:33.545Z,12.62
2018-05-08T04:48:02.039Z,12.71
2018-05-08T04:50:30.427Z,12.84
2018-05-08T04:52:58.853Z,12.94
2018-05-08T04:55:27.237Z,13.05
2018-05-08T04:57:55.696Z,13.16
2018-05-08T05:00:25.059Z,13.24
2018-05-08T05:02:53.430Z,13.33
2018-05-08T05:05:21.904Z,13.52
2018-05-08T05:07:50.336Z,13.79
2018-05-08T05:10:18.740Z,13.99
2018-05-08T05:12:47.899Z,14.11
2018-05-08T05:15:16.293Z,14.50
2018-05-08T05:17:44.702Z,14.74
2018-05-08T05:20:13.268Z,15.00
2018-05-08T05:22:41.682Z,14.98
2018-05-08T05:25:10.839Z,15.23
2018-05-08T05:27:39.225Z,15.45
2018-05-08T05:30:07.631Z,15.58
2018-05-08T05:32:36.027Z,15.64
2018-05-08T05:35:04.428Z,15.80
2018-05-08T05:37:33.594Z,15.94
2018-05-08T05:40:02.077Z,16.02
2018-05-08T05:42:30.536Z,16.07
2018-05-08T05:44:59.012Z,16.50
2018-05-08T05:47:28.448Z,16.79
2018-05-08T05:49:56.874Z,16.89
2018-05-08T05:52:26.037Z,17.06
2018-05-08T05:54:54.464Z,17.06
2018-05-08T05:57:22.908Z,17.22
2018-05-08T05:59:51.298Z,17.41
2018-05-08T06:02:19.675Z,17.36
2018-05-08T06:04:48.057Z,17.50
2018-05-08T06:07:16.468Z,17.66
2018-05-08T06:09:45.615Z,17.78
2018-05-08T06:12:13.995Z,18.04
2018-05-08T06:14:42.386Z,18.26
2018-05-08T06:17:12.547Z,18.38
2018-05-08T06:19:41.091Z,18.58
2018-05-08T06:22:09.489Z,18.82
2018-05-08T06:24:37.884Z,18.90
2018-05-08T06:27:06.323Z,19.05
2018-05-08T06:29:34.756Z,19.22
2018-05-08T06:32:03.121Z,19.47
2018-05-08T06:34:31.490Z,19.90
2018-05-08T06:36:59.886Z,20.01
2018-05-08T06:39:28.361Z,20.39
2018-05-08T06:41:56.745Z,20.67
2018-05-08T06:44:25.081Z,20.72
2018-05-08T06:46:54.220Z,21.12
2018-05-08T06:49:22.693Z,21.29
2018-05-08T06:51:53.974Z,21.32
2018-05-08T06:54:22.368Z,21.74
2018-05-08T06:56:50.761Z,21.83
2018-05-08T06:59:19.982Z,22.28
2018-05-08T07:01:49.186Z,22.74
2018-05-08T07:04:18.370Z,22.59
2018-05-08T07:06:46.775Z,23.14
2018-05-08T07:09:15.968Z,23.01
2018-05-08T07:11:44.382Z,22.98
2018-05-08T07:14:12.781Z,23.56
2018-05-08T07:16:41.211Z,24.28
2018-05-08T07:19:10.474Z,24.56
2018-05-08T07:21:38.867Z,25.34
2018-05-08T07:24:07.286Z,26.16
2018-05-08T07:26:35.676Z,27.03
2018-05-08T07:29:04.834Z,27.77
2018-05-08T07:31:33.218Z,28.35
2018-05-08T07:34:01.629Z,28.37
2018-05-08T07:36:30.105Z,28.66
2018-05-08T07:38:58.518Z,28.42
2018-05-08T07:41:27.821Z,28.79
2018-05-08T07:43:56.978Z,28.11
2018-05-08T07:46:25.383Z,29.00
2018-05-08T07:48:53.762Z,29.58
2018-05-08T07:51:22.139Z,29.82
2018-05-08T07:53:50.521Z,29.20
2018-05-08T07:56:18.913Z,30.48
2018-05-08T07:58:47.323Z,29.78
2018-05-08T08:01:16.515Z,30.92
2018-05-08T08:03:45.793Z,30.75
2018-05-08T08:06:14.173Z,30.61
2018-05-08T08:08:42.548Z,29.42
2018-05-08T08:11:10.927Z,29.27
2018-05-08T08:13:39.309Z,29.28
2018-05-08T08:16:07.967Z,30.96
2018-05-08T08:18:36.350Z,31.15
2018-05-08T08:21:04.739Z,31.12
2018-05-08T08:23:33.119Z,30.66
2018-05-08T08:26:01.522Z,31.47
2018-05-08T08:28:29.913Z,31.57
2018-05-08T08:30:58.291Z,32.41
2018-05-08T08:36:24.039Z,31.59
2018-05-08T08:38:53.169Z,32.02
2018-05-08T08:41:22.310Z,32.12
2018-05-08T08:43:50.889Z,32.87
2018-05-08T08:46:19.230Z,32.62
2018-05-08T08:48:47.609Z,33.81
2018-05-08T08:51:15.987Z,32.96
2018-05-08T08:53:44.380Z,31.76
2018-05-08T08:56:12.778Z,32.74
2018-05-08T08:58:41.946Z,32.94
2018-05-08T09:01:11.211Z,33.14
2018-05-08T09:03:39.590Z,32.85
2018-05-08T09:06:08.065Z,31.75
2018-05-08T09:08:37.226Z,32.79
2018-05-08T09:11:05.601Z,33.41
2018-05-08T09:13:34.031Z,33.83
2018-05-08T09:16:03.149Z,32.73
2018-05-08T09:18:31.564Z,32.62
2018-05-08T09:20:59.978Z,32.85
2018-05-08T09:23:28.383Z,33.28
2018-05-08T09:25:57.655Z,32.62
2018-05-08T09:28:26.076Z,33.53
2018-05-08T09:30:54.451Z,34.71
2018-05-08T09:33:22.923Z,32.74
2018-05-08T09:35:52.075Z,32.93
2018-05-08T09:38:20.458Z,33.66
2018-05-08T09:40:48.895Z,33.71
2018-05-08T09:43:18.050Z,34.05
2018-05-08T09:45:46.434Z,34.03
2018-05-08T09:48:14.834Z,33.76
2018-05-08T09:50:43.220Z,33.72
2018-05-08T09:53:11.660Z,34.10
2018-05-08T09:55:40.051Z,32.72
2018-05-08T09:58:08.434Z,34.31
2018-05-08T10:00:37.190Z,33.94
2018-05-08T10:03:06.366Z,32.62
2018-05-08T10:05:34.772Z,34.34
2018-05-08T10:08:04.007Z,34.56
2018-05-08T10:10:32.387Z,35.53
2018-05-08T10:13:00.801Z,34.51
2018-05-08T10:15:29.196Z,35.38
2018-05-08T10:17:57.647Z,34.24
2018-05-08T10:20:26.111Z,32.93
2018-05-08T10:22:54.691Z,32.93
2018-05-08T10:25:23.869Z,33.46
2018-05-08T10:27:52.324Z,32.20
2018-05-08T10:30:20.818Z,33.79
2018-05-08T10:32:49.225Z,35.05
2018-05-08T10:35:17.627Z,34.06
2018-05-08T10:37:46.805Z,33.58
2018-05-08T10:40:15.272Z,34.26
2018-05-08T10:42:44.577Z,34.86
2018-05-08T10:45:12.910Z,34.82
2018-05-08T10:47:42.000Z,34.82
2018-05-08T10:50:11.193Z,34.83
2018-05-08T10:52:40.511Z,33.50
2018-05-08T10:55:10.351Z,34.28
2018-05-08T10:57:38.739Z,33.43
2018-05-08T11:00:07.209Z,34.34
2018-05-08T11:02:35.599Z,34.11
2018-05-08T11:05:05.551Z,33.18
2018-05-08T11:07:33.942Z,33.41
2018-05-08T11:10:02.336Z,33.41
2018-05-08T11:12:30.758Z,32.82
2018-05-08T11:14:59.157Z,33.49
2018-05-08T11:17:27.593Z,34.01
2018-05-08T11:19:56.771Z,33.46
2018-05-08T11:22:25.437Z,32.91
2018-05-08T11:24:53.850Z,32.57
2018-05-08T11:27:22.263Z,33.01
2018-05-08T11:29:52.019Z,33.21
2018-05-08T11:32:20.407Z,32.96
2018-05-08T11:34:48.822Z,34.14
2018-05-08T11:37:17.227Z,33.31
2018-05-08T11:39:46.927Z,33.05
2018-05-08T11:42:15.326Z,33.38
2018-05-08T11:44:44.645Z,33.54
2018-05-08T11:47:12.974Z,33.24
2018-05-08T11:49:41.606Z,32.87
2018-05-08T11:52:10.758Z,32.98
2018-05-08T11:54:39.177Z,32.87
2018-05-08T11:57:07.567Z,32.54
2018-05-08T11:59:37.681Z,32.18
2018-05-08T12:02:07.303Z,32.15
2018-05-08T12:04:36.460Z,32.44
2018-05-08T12:07:04.830Z,32.71
2018-05-08T12:09:33.201Z,33.26
2018-05-08T12:12:01.607Z,32.81
2018-05-08T12:14:30.133Z,33.05
2018-05-08T12:16:58.702Z,32.97
2018-05-08T12:19:27.137Z,33.09
2018-05-08T12:21:55.553Z,32.40
2018-05-08T12:24:24.002Z,33.20
2018-05-08T12:26:52.465Z,32.29
2018-05-08T12:29:21.605Z,32.34
2018-05-08T12:31:50.029Z,31.65
2018-05-08T12:34:18.398Z,32.90
2018-05-08T12:36:46.786Z,33.41
2018-05-08T12:39:15.182Z,33.11
2018-05-08T12:41:43.581Z,33.43
2018-05-08T12:44:12.870Z,33.63
2018-05-08T12:46:41.270Z,32.76
2018-05-08T12:49:10.444Z,32.33
2018-05-08T12:51:38.834Z,32.51
2018-05-08T12:54:07.329Z,32.62
2018-05-08T12:56:36.495Z,33.04
2018-05-08T12:59:04.993Z,33.19
2018-05-08T13:01:33.314Z,32.55
2018-05-08T13:04:02.550Z,33.53
2018-05-08T13:06:30.966Z,33.72
2018-05-08T13:08:59.486Z,33.44
2018-05-08T13:11:28.661Z,33.59
2018-05-08T13:13:57.036Z,34.43
2018-05-08T13:16:25.505Z,34.28
2018-05-08T13:18:53.886Z,34.29
2018-05-08T13:21:22.270Z,33.96
2018-05-08T13:23:50.668Z,34.14
2018-05-08T13:26:19.046Z,33.53
2018-05-08T13:28:47.431Z,35.24
2018-05-08T13:31:15.819Z,34.01
2018-05-08T13:33:44.226Z,34.61
2018-05-08T13:36:12.723Z,34.64
2018-05-08T13:38:41.138Z,34.20
2018-05-08T13:41:09.625Z,33.55
2018-05-08T13:43:38.027Z,33.86
2018-05-08T13:46:06.466Z,33.75
2018-05-08T13:48:34.913Z,33.62
2018-05-08T13:51:03.389Z,33.83
2018-05-08T13:53:31.790Z,34.82
2018-05-08T13:56:00.172Z,35.18
2018-05-08T13:58:28.554Z,34.66
2018-05-08T14:00:57.023Z,34.40
2018-05-08T14:03:25.421Z,33.93
2018-05-08T14:05:53.860Z,34.13
2018-05-08T14:08:22.295Z,33.98
2018-05-08T14:10:50.719Z,34.26
2018-05-08T14:13:19.149Z,35.01
2018-05-08T14:15:47.559Z,34.30
2018-05-08T14:18:16.780Z,34.34
2018-05-08T14:20:45.246Z,33.86
2018-05-08T14:23:14.406Z,33.69
2018-05-08T14:25:42.846Z,35.14
2018-05-08T14:28:11.214Z,35.40
2018-05-08T14:30:40.425Z,34.72
2018-05-08T14:33:08.790Z,34.72
2018-05-08T14:35:37.210Z,35.10
2018-05-08T14:38:05.725Z,36.60
2018-05-08T14:40:34.119Z,36.15
2018-05-08T14:43:02.510Z,35.59
2018-05-08T14:45:30.897Z,34.66
2018-05-08T14:47:59.373Z,35.31
2018-05-08T14:50:27.925Z,34.08
2018-05-08T14:52:56.310Z,34.56
2018-05-08T14:55:24.696Z,35.05
2018-05-08T14:57:53.175Z,35.07
2018-05-08T15:00:21.663Z,36.26
2018-05-08T15:02:50.053Z,36.14
2018-05-08T15:05:18.625Z,36.43
2018-05-08T15:07:46.999Z,36.11
2018-05-08T15:10:15.411Z,36.27
2018-05-08T15:12:43.833Z,36.31
2018-05-08T15:15:12.266Z,36.62
2018-05-08T15:17:40.653Z,35.21
2018-05-08T15:20:09.110Z,34.47
2018-05-08T15:22:38.258Z,35.08
2018-05-08T15:25:06.632Z,35.42
2018-05-08T15:27:35.046Z,35.62
2018-05-08T15:30:03.731Z,36.86
2018-05-08T15:32:32.065Z,35.06
2018-05-08T15:35:00.495Z,34.72
2018-05-08T15:37:28.917Z,35.20
2018-05-08T15:39:58.075Z,33.28
2018-05-08T15:42:27.217Z,34.59
2018-05-08T15:45:00.860Z,33.21
2018-05-08T15:47:29.238Z,33.05
2018-05-08T15:49:57.698Z,34.43
2018-05-08T15:52:26.088Z,33.69
2018-05-08T15:54:54.476Z,33.50
2018-05-08T15:57:22.881Z,32.64
2018-05-08T15:59:51.312Z,32.75
2018-05-08T16:02:20.516Z,31.63
2018-05-08T16:04:49.696Z,32.05
2018-05-08T16:07:18.188Z,31.59
2018-05-08T16:09:46.574Z,31.42
2018-05-08T16:12:14.992Z,31.78
2018-05-08T16:14:44.183Z,31.87
2018-05-08T16:17:13.380Z,32.27
2018-05-08T16:19:42.547Z,32.59
2018-05-08T16:22:10.994Z,32.49
2018-05-08T16:24:39.379Z,32.45
2018-05-08T16:27:07.773Z,31.74
2018-05-08T16:29:36.194Z,32.66
2018-05-08T16:32:04.570Z,32.67
2018-05-08T16:34:33.008Z,33.34
2018-05-08T16:37:01.413Z,33.42
2018-05-08T16:39:29.833Z,32.23
2018-05-08T16:41:58.203Z,30.73
2018-05-08T16:44:26.619Z,29.37
2018-05-08T16:46:55.778Z,28.57
2018-05-08T16:49:24.225Z,28.45
2018-05-08T16:51:52.672Z,28.20
2018-05-08T16:54:21.922Z,27.99
2018-05-08T16:56:50.320Z,27.97
2018-05-08T16:59:18.703Z,27.62
2018-05-08T17:01:47.113Z,27.63
2018-05-08T17:04:15.528Z,27.52
2018-05-08T17:06:44.683Z,27.33
2018-05-08T17:09:13.114Z,27.20
2018-05-08T17:11:42.350Z,27.33
2018-05-08T17:14:10.759Z,27.36
2018-05-08T17:16:39.172Z,27.51
2018-05-08T17:19:08.394Z,27.48
2018-05-08T17:21:36.787Z,27.26
2018-05-08T17:24:05.209Z,27.15
2018-05-08T17:26:34.401Z,27.07
2018-05-08T17:29:02.778Z,26.85
2018-05-08T17:31:31.206Z,27.01
2018-05-08T17:33:59.638Z,27.11
2018-05-08T17:36:28.076Z,27.04
2018-05-08T17:38:56.482Z,26.94
2018-05-08T17:41:25.651Z,26.82
2018-05-08T17:43:54.091Z,26.81
2018-05-08T17:46:22.482Z,27.00
2018-05-08T17:48:50.904Z,26.91
2018-05-08T17:51:19.339Z,26.89
2018-05-08T17:53:47.741Z,27.04
2018-05-08T17:56:16.116Z,26.95
2018-05-08T17:58:44.536Z,26.78
2018-05-08T18:01:12.963Z,26.62
2018-05-08T18:03:41.356Z,26.38
2018-05-08T18:06:11.880Z,26.13
2018-05-08T18:08:40.333Z,26.06
2018-05-08T18:11:08.762Z,26.04
2018-05-08T18:13:37.193Z,25.80
2018-05-08T18:16:05.587Z,25.65
2018-05-08T18:18:34.747Z,25.55
2018-05-08T18:21:03.183Z,25.42
2018-05-08T18:23:32.355Z,25.39
2018-05-08T18:26:00.764Z,25.47
2018-05-08T18:28:29.942Z,25.38
2018-05-08T18:30:58.370Z,25.25
2018-05-08T18:33:26.764Z,25.24
2018-05-08T18:35:55.183Z,25.18
2018-05-08T18:38:23.596Z,25.15
2018-05-08T18:40:52.875Z,24.87
2018-05-08T18:43:21.342Z,24.77
2018-05-08T18:45:49.775Z,24.74
2018-05-08T18:48:19.017Z,24.46
2018-05-08T18:50:47.407Z,24.08
2018-05-08T18:53:15.812Z,23.79
2018-05-08T18:55:44.237Z,23.61
2018-05-08T18:58:13.404Z,23.45
2018-05-08T19:00:47.371Z,23.33
2018-05-08T19:03:15.784Z,23.27
2018-05-08T19:05:44.222Z,23.21
2018-05-08T19:08:12.645Z,23.05
2018-05-08T19:10:41.083Z,22.88
2018-05-08T19:13:10.279Z,22.64
2018-05-08T19:15:45.855Z,22.36
2018-05-08T19:18:14.266Z,22.32
2018-05-08T19:20:42.673Z,22.19
2018-05-08T19:23:11.074Z,21.98
2018-05-08T19:25:40.252Z,21.74
2018-05-08T19:28:14.159Z,21.56
2018-05-08T19:30:42.583Z,21.29
2018-05-08T19:33:10.968Z,21.09
2018-05-08T19:35:44.896Z,20.90
2018-05-08T19:38:16.267Z,20.73
2018-05-08T19:40:44.718Z,20.62
2018-05-08T19:43:13.169Z,20.49
2018-05-08T19:45:41.645Z,20.53
2018-05-08T19:48:10.054Z,20.43
2018-05-08T19:50:39.243Z,20.33
2018-05-08T19:53:07.636Z,20.23
2018-05-08T19:55:36.809Z,20.11
2018-05-08T19:58:05.250Z,20.18
2018-05-08T20:00:33.680Z,20.18
2018-05-08T20:03:02.109Z,20.15
2018-05-08T20:05:30.506Z,20.06
2018-05-08T20:07:58.938Z,20.02
2018-05-08T20:10:27.371Z,19.98
2018-05-08T20:12:56.118Z,19.86
2018-05-08T20:15:24.521Z,19.75
2018-05-08T20:17:53.740Z,19.71
2018-05-08T20:20:22.166Z,19.68
2018-05-08T20:22:50.572Z,19.53
2018-05-08T20:25:19.011Z,19.48
2018-05-08T20:27:47.427Z,19.35
2018-05-08T20:30:15.832Z,19.26
2018-05-08T20:32:45.001Z,19.32
2018-05-08T20:35:13.401Z,19.35
2018-05-08T20:37:41.786Z,19.35
2018-05-08T20:40:10.171Z,19.29
2018-05-08T20:42:38.601Z,19.29
2018-05-08T20:45:07.025Z,19.19
2018-05-08T20:47:36.514Z,19.10
2018-05-08T20:50:04.964Z,19.06
2018-05-08T20:52:33.414Z,18.98
2018-05-08T20:55:01.809Z,18.85
2018-05-08T20:57:31.007Z,18.72
2018-05-08T20:59:59.408Z,18.62
2018-05-08T21:02:28.648Z,18.58
2018-05-08T21:04:57.080Z,18.59
2018-05-08T21:07:25.528Z,18.56
2018-05-08T21:09:53.967Z,18.45
2018-05-08T21:12:22.379Z,18.45
2018-05-08T21:14:50.850Z,18.42
2018-05-08T21:17:19.255Z,18.28
2018-05-08T21:19:47.687Z,18.52
2018-05-08T21:22:16.888Z,18.49
2018-05-08T21:24:46.117Z,18.40
2018-05-08T21:27:14.549Z,18.40
2018-05-08T21:29:48.433Z,18.31
2018-05-08T21:32:16.850Z,18.20
2018-05-08T21:34:45.286Z,18.09
2018-05-08T21:37:13.794Z,17.94
2018-05-08T21:39:42.292Z,17.72
2018-05-08T21:42:10.708Z,17.60
2018-05-08T21:44:39.881Z,17.74
2018-05-08T21:47:08.387Z,17.66
2018-05-08T21:49:37.580Z,17.64
2018-05-08T21:52:06.005Z,17.69
2018-05-08T21:54:34.444Z,17.61
2018-05-08T21:57:02.894Z,17.37
2018-05-08T21:59:31.363Z,17.21
2018-05-08T22:01:59.818Z,17.03
2018-05-08T22:04:29.019Z,16.98
2018-05-08T22:06:58.223Z,16.74
2018-05-08T22:09:27.401Z,16.57
2018-05-08T22:11:55.853Z,16.41
2018-05-08T22:14:24.308Z,16.35
2018-05-08T23:10:38.984Z,15.46
2018-05-08T23:13:07.353Z,15.37
2018-05-08T23:15:35.782Z,15.26
2018-05-08T23:18:06.125Z,15.15
2018-05-08T23:20:34.504Z,15.09
2018-05-08T23:23:02.934Z,15.05
2018-05-08T23:25:31.431Z,14.98
2018-05-08T23:27:59.971Z,14.89
2018-05-08T23:30:29.178Z,14.80
2018-05-08T23:32:57.738Z,14.82
2018-05-08T23:35:26.164Z,14.73
2018-05-08T23:37:54.595Z,14.61
2018-05-08T23:40:22.992Z,14.53
2018-05-08T23:42:51.387Z,14.47
2018-05-08T23:45:20.558Z,14.53
2018-05-08T23:47:48.983Z,14.46
2018-05-08T23:50:18.165Z,14.41
2018-05-08T23:52:46.562Z,14.35
2018-05-08T23:55:15.725Z,14.28
2018-05-08T23:57:44.106Z,14.24
